sensor_id;sensor_type;location;lat;lon;timestamp;P1;durP1;ratioP1;P2;durP2;ratioP2
62673;SDS011;62269;47.594;17.638;2024-03-08T00:00:50;15.50;;;12.60;;
62673;SDS011;62269;47.594;17.638;2024-03-08T00:01:48;15.40;;;12.15;;
62673;SDS011;62269;47.594;17.638;2024-03-08T00:02:45;14.82;;;12.73;;
62673;SDS011;62269;47.594;17.638;2024-03-08T00:03:43;15.38;;;12.15;;
62673;SDS011;62269;47.594;17.638;2024-03-08T00:04:40;14.18;;;12.50;;
62673;SDS011;62269;47.594;17.638;2024-03-08T00:05:37;14.15;;;12.65;;
62673;SDS011;62269;47.594;17.638;2024-03-08T00:06:35;16.37;;;13.23;;
62673;SDS011;62269;47.594;17.638;2024-03-08T00:07:32;13.23;;;11.82;;
62673;SDS011;62269;47.594;17.638;2024-03-08T00:08:29;15.73;;;12.52;;
62673;SDS011;62269;47.594;17.638;2024-03-08T00:09:27;14.10;;;11.82;;
62673;SDS011;62269;47.594;17.638;2024-03-08T00:10:24;14.23;;;12.55;;
62673;SDS011;62269;47.594;17.638;2024-03-08T00:11:23;16.15;;;13.98;;
62673;SDS011;62269;47.594;17.638;2024-03-08T00:12:22;15.02;;;12.55;;
62673;SDS011;62269;47.594;17.638;2024-03-08T00:13:20;14.20;;;12.70;;
62673;SDS011;62269;47.594;17.638;2024-03-08T00:14:17;15.15;;;13.50;;
62673;SDS011;62269;47.594;17.638;2024-03-08T00:15:15;13.45;;;11.77;;
62673;SDS011;62269;47.594;17.638;2024-03-08T00:16:15;17.12;;;13.45;;
62673;SDS011;62269;47.594;17.638;2024-03-08T00:17:12;14.38;;;12.20;;
62673;SDS011;62269;47.594;17.638;2024-03-08T00:18:09;14.68;;;11.48;;
62673;SDS011;62269;47.594;17.638;2024-03-08T00:19:08;15.00;;;11.82;;
62673;SDS011;62269;47.594;17.638;2024-03-08T00:20:06;14.98;;;12.55;;
62673;SDS011;62269;47.594;17.638;2024-03-08T00:22:05;14.20;;;11.88;;
62673;SDS011;62269;47.594;17.638;2024-03-08T00:23:02;13.98;;;12.37;;
62673;SDS011;62269;47.594;17.638;2024-03-08T00:23:59;15.55;;;12.95;;
62673;SDS011;62269;47.594;17.638;2024-03-08T00:24:56;14.30;;;12.75;;
62673;SDS011;62269;47.594;17.638;2024-03-08T00:25:53;15.38;;;13.13;;
62673;SDS011;62269;47.594;17.638;2024-03-08T00:26:52;16.98;;;13.32;;
62673;SDS011;62269;47.594;17.638;2024-03-08T00:27:50;14.93;;;12.45;;
62673;SDS011;62269;47.594;17.638;2024-03-08T00:28:48;14.55;;;12.88;;
62673;SDS011;62269;47.594;17.638;2024-03-08T00:29:46;15.20;;;12.75;;
62673;SDS011;62269;47.594;17.638;2024-03-08T00:30:43;14.57;;;13.00;;
62673;SDS011;62269;47.594;17.638;2024-03-08T00:31:42;15.90;;;13.82;;
62673;SDS011;62269;47.594;17.638;2024-03-08T00:32:38;15.65;;;13.48;;
62673;SDS011;62269;47.594;17.638;2024-03-08T00:33:36;14.65;;;11.68;;
62673;SDS011;62269;47.594;17.638;2024-03-08T00:34:36;13.93;;;12.43;;
62673;SDS011;62269;47.594;17.638;2024-03-08T00:35:33;15.40;;;12.45;;
62673;SDS011;62269;47.594;17.638;2024-03-08T00:36:30;15.85;;;13.35;;
62673;SDS011;62269;47.594;17.638;2024-03-08T00:37:27;14.82;;;12.70;;
62673;SDS011;62269;47.594;17.638;2024-03-08T00:38:24;14.02;;;12.30;;
62673;SDS011;62269;47.594;17.638;2024-03-08T00:39:21;13.77;;;12.13;;
62673;SDS011;62269;47.594;17.638;2024-03-08T00:40:19;16.00;;;13.85;;
62673;SDS011;62269;47.594;17.638;2024-03-08T00:41:16;14.57;;;12.55;;
62673;SDS011;62269;47.594;17.638;2024-03-08T00:42:13;15.52;;;13.10;;
62673;SDS011;62269;47.594;17.638;2024-03-08T00:43:10;13.65;;;12.25;;
62673;SDS011;62269;47.594;17.638;2024-03-08T00:44:08;14.90;;;13.30;;
62673;SDS011;62269;47.594;17.638;2024-03-08T00:45:07;15.52;;;13.27;;
62673;SDS011;62269;47.594;17.638;2024-03-08T00:46:04;15.98;;;13.88;;
62673;SDS011;62269;47.594;17.638;2024-03-08T00:47:01;15.90;;;12.68;;
62673;SDS011;62269;47.594;17.638;2024-03-08T00:47:59;15.52;;;12.98;;
62673;SDS011;62269;47.594;17.638;2024-03-08T00:48:57;15.70;;;12.60;;
62673;SDS011;62269;47.594;17.638;2024-03-08T00:49:54;15.15;;;13.55;;
62673;SDS011;62269;47.594;17.638;2024-03-08T00:50:53;17.73;;;14.13;;
62673;SDS011;62269;47.594;17.638;2024-03-08T00:51:50;14.43;;;12.48;;
62673;SDS011;62269;47.594;17.638;2024-03-08T00:52:47;16.55;;;13.75;;
62673;SDS011;62269;47.594;17.638;2024-03-08T00:53:44;15.02;;;12.70;;
62673;SDS011;62269;47.594;17.638;2024-03-08T00:54:42;14.55;;;12.45;;
62673;SDS011;62269;47.594;17.638;2024-03-08T00:55:40;14.40;;;12.90;;
62673;SDS011;62269;47.594;17.638;2024-03-08T00:56:37;15.07;;;13.15;;
62673;SDS011;62269;47.594;17.638;2024-03-08T00:57:35;16.65;;;13.52;;
62673;SDS011;62269;47.594;17.638;2024-03-08T00:58:32;14.95;;;12.65;;
62673;SDS011;62269;47.594;17.638;2024-03-08T00:59:29;14.50;;;12.98;;
62673;SDS011;62269;47.594;17.638;2024-03-08T01:00:29;15.57;;;12.35;;
62673;SDS011;62269;47.594;17.638;2024-03-08T01:01:27;15.48;;;12.68;;
62673;SDS011;62269;47.594;17.638;2024-03-08T01:02:24;15.40;;;13.38;;
62673;SDS011;62269;47.594;17.638;2024-03-08T01:03:21;13.77;;;11.85;;
62673;SDS011;62269;47.594;17.638;2024-03-08T01:04:18;13.68;;;12.25;;
62673;SDS011;62269;47.594;17.638;2024-03-08T01:05:16;14.35;;;12.37;;
62673;SDS011;62269;47.594;17.638;2024-03-08T01:06:14;15.18;;;13.30;;
62673;SDS011;62269;47.594;17.638;2024-03-08T01:07:11;14.35;;;12.05;;
62673;SDS011;62269;47.594;17.638;2024-03-08T01:08:09;14.90;;;12.88;;
62673;SDS011;62269;47.594;17.638;2024-03-08T01:09:08;14.48;;;12.57;;
62673;SDS011;62269;47.594;17.638;2024-03-08T01:10:06;14.82;;;12.57;;
62673;SDS011;62269;47.594;17.638;2024-03-08T01:11:07;14.70;;;11.98;;
62673;SDS011;62269;47.594;17.638;2024-03-08T01:12:04;14.40;;;12.27;;
62673;SDS011;62269;47.594;17.638;2024-03-08T01:13:04;14.13;;;12.32;;
62673;SDS011;62269;47.594;17.638;2024-03-08T01:14:01;13.55;;;11.18;;
62673;SDS011;62269;47.594;17.638;2024-03-08T01:14:58;14.07;;;12.00;;
62673;SDS011;62269;47.594;17.638;2024-03-08T01:15:56;14.25;;;12.35;;
62673;SDS011;62269;47.594;17.638;2024-03-08T01:16:53;13.05;;;11.55;;
62673;SDS011;62269;47.594;17.638;2024-03-08T01:17:51;13.20;;;11.82;;
62673;SDS011;62269;47.594;17.638;2024-03-08T01:18:49;14.18;;;11.65;;
62673;SDS011;62269;47.594;17.638;2024-03-08T01:19:47;13.00;;;11.52;;
62673;SDS011;62269;47.594;17.638;2024-03-08T01:20:44;12.60;;;11.27;;
62673;SDS011;62269;47.594;17.638;2024-03-08T01:21:41;13.57;;;11.35;;
62673;SDS011;62269;47.594;17.638;2024-03-08T01:22:40;14.25;;;12.27;;
62673;SDS011;62269;47.594;17.638;2024-03-08T01:23:38;14.63;;;11.98;;
62673;SDS011;62269;47.594;17.638;2024-03-08T01:24:37;13.43;;;11.05;;
62673;SDS011;62269;47.594;17.638;2024-03-08T01:25:34;12.98;;;10.98;;
62673;SDS011;62269;47.594;17.638;2024-03-08T01:26:31;15.48;;;11.07;;
62673;SDS011;62269;47.594;17.638;2024-03-08T01:27:28;13.27;;;11.63;;
62673;SDS011;62269;47.594;17.638;2024-03-08T01:28:25;13.70;;;11.15;;
62673;SDS011;62269;47.594;17.638;2024-03-08T01:29:23;13.95;;;11.05;;
62673;SDS011;62269;47.594;17.638;2024-03-08T01:30:20;12.70;;;11.30;;
62673;SDS011;62269;47.594;17.638;2024-03-08T01:31:17;13.20;;;11.30;;
62673;SDS011;62269;47.594;17.638;2024-03-08T01:32:14;13.07;;;11.20;;
62673;SDS011;62269;47.594;17.638;2024-03-08T01:33:11;12.90;;;11.00;;
62673;SDS011;62269;47.594;17.638;2024-03-08T01:34:08;14.93;;;12.45;;
62673;SDS011;62269;47.594;17.638;2024-03-08T01:35:05;13.62;;;11.88;;
62673;SDS011;62269;47.594;17.638;2024-03-08T01:36:03;13.93;;;11.25;;
62673;SDS011;62269;47.594;17.638;2024-03-08T01:37:01;14.30;;;11.20;;
62673;SDS011;62269;47.594;17.638;2024-03-08T01:37:58;13.38;;;11.98;;
62673;SDS011;62269;47.594;17.638;2024-03-08T01:38:54;13.98;;;12.35;;
62673;SDS011;62269;47.594;17.638;2024-03-08T01:39:52;14.90;;;12.23;;
62673;SDS011;62269;47.594;17.638;2024-03-08T01:40:49;14.52;;;12.75;;
62673;SDS011;62269;47.594;17.638;2024-03-08T01:41:47;15.02;;;12.60;;
62673;SDS011;62269;47.594;17.638;2024-03-08T01:42:44;14.20;;;12.57;;
62673;SDS011;62269;47.594;17.638;2024-03-08T01:43:41;15.93;;;13.15;;
62673;SDS011;62269;47.594;17.638;2024-03-08T01:44:38;13.62;;;11.63;;
62673;SDS011;62269;47.594;17.638;2024-03-08T01:45:36;15.02;;;12.68;;
62673;SDS011;62269;47.594;17.638;2024-03-08T01:46:33;14.43;;;12.82;;
62673;SDS011;62269;47.594;17.638;2024-03-08T01:47:31;20.77;;;13.48;;
62673;SDS011;62269;47.594;17.638;2024-03-08T01:48:29;14.87;;;12.50;;
62673;SDS011;62269;47.594;17.638;2024-03-08T01:49:27;14.43;;;12.13;;
62673;SDS011;62269;47.594;17.638;2024-03-08T01:50:24;14.15;;;11.90;;
62673;SDS011;62269;47.594;17.638;2024-03-08T01:51:21;15.68;;;12.00;;
62673;SDS011;62269;47.594;17.638;2024-03-08T01:52:19;13.70;;;12.05;;
62673;SDS011;62269;47.594;17.638;2024-03-08T01:53:17;13.60;;;11.55;;
62673;SDS011;62269;47.594;17.638;2024-03-08T01:54:16;13.43;;;11.70;;
62673;SDS011;62269;47.594;17.638;2024-03-08T01:55:14;13.50;;;11.95;;
62673;SDS011;62269;47.594;17.638;2024-03-08T01:56:11;14.07;;;12.57;;
62673;SDS011;62269;47.594;17.638;2024-03-08T01:57:11;14.27;;;11.57;;
62673;SDS011;62269;47.594;17.638;2024-03-08T01:58:09;15.07;;;12.40;;
62673;SDS011;62269;47.594;17.638;2024-03-08T01:59:06;13.82;;;11.15;;
62673;SDS011;62269;47.594;17.638;2024-03-08T02:00:04;13.50;;;12.02;;
62673;SDS011;62269;47.594;17.638;2024-03-08T02:01:02;13.85;;;12.18;;
62673;SDS011;62269;47.594;17.638;2024-03-08T02:02:01;13.88;;;11.45;;
62673;SDS011;62269;47.594;17.638;2024-03-08T02:02:59;14.77;;;13.13;;
62673;SDS011;62269;47.594;17.638;2024-03-08T02:03:57;13.20;;;11.80;;
62673;SDS011;62269;47.594;17.638;2024-03-08T02:04:55;13.88;;;12.43;;
62673;SDS011;62269;47.594;17.638;2024-03-08T02:05:52;13.52;;;11.82;;
62673;SDS011;62269;47.594;17.638;2024-03-08T02:06:51;14.63;;;12.40;;
62673;SDS011;62269;47.594;17.638;2024-03-08T02:07:48;14.10;;;12.18;;
62673;SDS011;62269;47.594;17.638;2024-03-08T02:08:46;13.98;;;12.10;;
62673;SDS011;62269;47.594;17.638;2024-03-08T02:09:43;14.82;;;13.18;;
62673;SDS011;62269;47.594;17.638;2024-03-08T02:10:43;14.63;;;12.70;;
62673;SDS011;62269;47.594;17.638;2024-03-08T02:11:41;15.75;;;14.05;;
62673;SDS011;62269;47.594;17.638;2024-03-08T02:12:38;15.13;;;12.07;;
62673;SDS011;62269;47.594;17.638;2024-03-08T02:13:36;14.70;;;12.15;;
62673;SDS011;62269;47.594;17.638;2024-03-08T02:14:33;14.75;;;13.10;;
62673;SDS011;62269;47.594;17.638;2024-03-08T02:16:52;13.85;;;12.30;;
62673;SDS011;62269;47.594;17.638;2024-03-08T02:17:50;14.57;;;12.60;;
62673;SDS011;62269;47.594;17.638;2024-03-08T02:18:47;14.52;;;12.18;;
62673;SDS011;62269;47.594;17.638;2024-03-08T02:19:44;15.68;;;13.00;;
62673;SDS011;62269;47.594;17.638;2024-03-08T02:20:42;14.77;;;13.05;;
62673;SDS011;62269;47.594;17.638;2024-03-08T02:21:39;14.80;;;12.90;;
62673;SDS011;62269;47.594;17.638;2024-03-08T02:22:37;13.77;;;12.25;;
62673;SDS011;62269;47.594;17.638;2024-03-08T02:23:34;14.90;;;12.82;;
62673;SDS011;62269;47.594;17.638;2024-03-08T02:24:32;13.80;;;12.37;;
62673;SDS011;62269;47.594;17.638;2024-03-08T02:25:30;15.35;;;12.60;;
62673;SDS011;62269;47.594;17.638;2024-03-08T02:26:28;15.77;;;12.90;;
62673;SDS011;62269;47.594;17.638;2024-03-08T02:27:25;14.55;;;12.45;;
62673;SDS011;62269;47.594;17.638;2024-03-08T02:28:22;15.63;;;13.55;;
62673;SDS011;62269;47.594;17.638;2024-03-08T02:29:20;15.88;;;12.70;;
62673;SDS011;62269;47.594;17.638;2024-03-08T02:30:17;16.83;;;12.57;;
62673;SDS011;62269;47.594;17.638;2024-03-08T02:31:14;14.52;;;12.93;;
62673;SDS011;62269;47.594;17.638;2024-03-08T02:32:11;15.30;;;12.45;;
62673;SDS011;62269;47.594;17.638;2024-03-08T02:33:08;15.77;;;13.25;;
62673;SDS011;62269;47.594;17.638;2024-03-08T02:34:08;13.70;;;12.13;;
62673;SDS011;62269;47.594;17.638;2024-03-08T02:35:06;15.98;;;13.48;;
62673;SDS011;62269;47.594;17.638;2024-03-08T02:36:03;15.27;;;13.48;;
62673;SDS011;62269;47.594;17.638;2024-03-08T02:37:01;14.35;;;12.80;;
62673;SDS011;62269;47.594;17.638;2024-03-08T02:37:58;13.85;;;12.45;;
62673;SDS011;62269;47.594;17.638;2024-03-08T02:39:02;14.82;;;13.23;;
62673;SDS011;62269;47.594;17.638;2024-03-08T02:39:59;14.57;;;12.95;;
62673;SDS011;62269;47.594;17.638;2024-03-08T02:40:56;16.08;;;13.27;;
62673;SDS011;62269;47.594;17.638;2024-03-08T02:41:53;14.60;;;12.18;;
62673;SDS011;62269;47.594;17.638;2024-03-08T02:42:50;14.30;;;12.32;;
62673;SDS011;62269;47.594;17.638;2024-03-08T02:43:47;14.73;;;12.30;;
62673;SDS011;62269;47.594;17.638;2024-03-08T02:44:44;15.48;;;13.38;;
62673;SDS011;62269;47.594;17.638;2024-03-08T02:45:41;15.65;;;12.98;;
62673;SDS011;62269;47.594;17.638;2024-03-08T02:46:39;16.80;;;13.57;;
62673;SDS011;62269;47.594;17.638;2024-03-08T02:47:36;16.80;;;13.60;;
62673;SDS011;62269;47.594;17.638;2024-03-08T02:48:33;15.30;;;12.93;;
62673;SDS011;62269;47.594;17.638;2024-03-08T02:49:30;15.65;;;12.68;;
62673;SDS011;62269;47.594;17.638;2024-03-08T02:50:27;15.13;;;12.82;;
62673;SDS011;62269;47.594;17.638;2024-03-08T02:51:25;14.82;;;13.00;;
62673;SDS011;62269;47.594;17.638;2024-03-08T02:52:22;14.23;;;12.73;;
62673;SDS011;62269;47.594;17.638;2024-03-08T02:53:19;14.80;;;12.80;;
62673;SDS011;62269;47.594;17.638;2024-03-08T02:54:17;14.45;;;12.95;;
62673;SDS011;62269;47.594;17.638;2024-03-08T02:55:14;14.38;;;12.30;;
62673;SDS011;62269;47.594;17.638;2024-03-08T02:56:14;15.35;;;13.25;;
62673;SDS011;62269;47.594;17.638;2024-03-08T02:57:13;15.07;;;13.05;;
62673;SDS011;62269;47.594;17.638;2024-03-08T02:58:11;17.45;;;13.93;;
62673;SDS011;62269;47.594;17.638;2024-03-08T02:59:08;15.48;;;13.88;;
62673;SDS011;62269;47.594;17.638;2024-03-08T03:00:05;14.40;;;12.90;;
62673;SDS011;62269;47.594;17.638;2024-03-08T03:02:02;15.32;;;12.18;;
62673;SDS011;62269;47.594;17.638;2024-03-08T03:02:59;15.65;;;13.05;;
62673;SDS011;62269;47.594;17.638;2024-03-08T03:03:59;14.82;;;13.10;;
62673;SDS011;62269;47.594;17.638;2024-03-08T03:04:56;14.50;;;12.80;;
62673;SDS011;62269;47.594;17.638;2024-03-08T03:05:53;14.65;;;12.95;;
62673;SDS011;62269;47.594;17.638;2024-03-08T03:06:53;14.60;;;13.02;;
62673;SDS011;62269;47.594;17.638;2024-03-08T03:07:51;15.13;;;13.30;;
62673;SDS011;62269;47.594;17.638;2024-03-08T03:08:49;14.30;;;12.77;;
62673;SDS011;62269;47.594;17.638;2024-03-08T03:09:47;15.43;;;13.52;;
62673;SDS011;62269;47.594;17.638;2024-03-08T03:10:44;15.45;;;13.23;;
62673;SDS011;62269;47.594;17.638;2024-03-08T03:11:44;14.20;;;12.30;;
62673;SDS011;62269;47.594;17.638;2024-03-08T03:12:41;17.10;;;13.70;;
62673;SDS011;62269;47.594;17.638;2024-03-08T03:13:38;16.40;;;13.45;;
62673;SDS011;62269;47.594;17.638;2024-03-08T03:14:35;13.93;;;12.43;;
62673;SDS011;62269;47.594;17.638;2024-03-08T03:15:35;14.55;;;12.27;;
62673;SDS011;62269;47.594;17.638;2024-03-08T03:16:33;14.57;;;12.70;;
62673;SDS011;62269;47.594;17.638;2024-03-08T03:17:31;15.88;;;12.77;;
62673;SDS011;62269;47.594;17.638;2024-03-08T03:18:28;13.95;;;12.40;;
62673;SDS011;62269;47.594;17.638;2024-03-08T03:19:25;15.85;;;12.80;;
62673;SDS011;62269;47.594;17.638;2024-03-08T03:20:24;16.23;;;13.52;;
62673;SDS011;62269;47.594;17.638;2024-03-08T03:21:29;15.02;;;13.27;;
62673;SDS011;62269;47.594;17.638;2024-03-08T03:22:28;16.10;;;13.75;;
62673;SDS011;62269;47.594;17.638;2024-03-08T03:23:26;15.15;;;13.38;;
62673;SDS011;62269;47.594;17.638;2024-03-08T03:24:23;17.23;;;13.57;;
62673;SDS011;62269;47.594;17.638;2024-03-08T03:25:21;14.07;;;12.43;;
62673;SDS011;62269;47.594;17.638;2024-03-08T03:26:32;14.63;;;12.85;;
62673;SDS011;62269;47.594;17.638;2024-03-08T03:27:29;17.40;;;13.55;;
62673;SDS011;62269;47.594;17.638;2024-03-08T03:28:27;14.65;;;13.15;;
62673;SDS011;62269;47.594;17.638;2024-03-08T03:29:24;15.73;;;13.52;;
62673;SDS011;62269;47.594;17.638;2024-03-08T03:30:22;16.45;;;13.57;;
62673;SDS011;62269;47.594;17.638;2024-03-08T03:31:23;16.95;;;13.65;;
62673;SDS011;62269;47.594;17.638;2024-03-08T03:32:22;15.48;;;13.80;;
62673;SDS011;62269;47.594;17.638;2024-03-08T03:33:20;15.95;;;13.62;;
62673;SDS011;62269;47.594;17.638;2024-03-08T03:34:17;15.73;;;13.93;;
62673;SDS011;62269;47.594;17.638;2024-03-08T03:35:14;15.43;;;13.73;;
62673;SDS011;62269;47.594;17.638;2024-03-08T03:36:11;16.98;;;14.38;;
62673;SDS011;62269;47.594;17.638;2024-03-08T03:37:10;15.27;;;12.90;;
62673;SDS011;62269;47.594;17.638;2024-03-08T03:38:10;17.42;;;13.38;;
62673;SDS011;62269;47.594;17.638;2024-03-08T03:39:08;15.35;;;13.70;;
62673;SDS011;62269;47.594;17.638;2024-03-08T03:40:13;16.27;;;13.55;;
62673;SDS011;62269;47.594;17.638;2024-03-08T03:41:10;16.30;;;13.45;;
62673;SDS011;62269;47.594;17.638;2024-03-08T03:42:07;15.40;;;13.73;;
62673;SDS011;62269;47.594;17.638;2024-03-08T03:43:04;15.32;;;13.70;;
62673;SDS011;62269;47.594;17.638;2024-03-08T03:44:01;16.42;;;13.65;;
62673;SDS011;62269;47.594;17.638;2024-03-08T03:44:58;15.23;;;13.62;;
62673;SDS011;62269;47.594;17.638;2024-03-08T03:45:56;16.23;;;14.45;;
62673;SDS011;62269;47.594;17.638;2024-03-08T03:46:53;15.57;;;13.57;;
62673;SDS011;62269;47.594;17.638;2024-03-08T03:47:50;16.90;;;14.20;;
62673;SDS011;62269;47.594;17.638;2024-03-08T03:48:48;16.12;;;13.07;;
62673;SDS011;62269;47.594;17.638;2024-03-08T03:49:45;16.42;;;14.15;;
62673;SDS011;62269;47.594;17.638;2024-03-08T03:50:42;16.40;;;14.23;;
62673;SDS011;62269;47.594;17.638;2024-03-08T03:51:40;15.82;;;14.13;;
62673;SDS011;62269;47.594;17.638;2024-03-08T03:52:37;16.10;;;14.35;;
62673;SDS011;62269;47.594;17.638;2024-03-08T03:53:34;18.00;;;14.15;;
62673;SDS011;62269;47.594;17.638;2024-03-08T03:54:31;18.77;;;13.90;;
62673;SDS011;62269;47.594;17.638;2024-03-08T03:55:29;16.83;;;14.30;;
62673;SDS011;62269;47.594;17.638;2024-03-08T03:56:26;16.52;;;14.15;;
62673;SDS011;62269;47.594;17.638;2024-03-08T03:57:23;16.58;;;13.98;;
62673;SDS011;62269;47.594;17.638;2024-03-08T03:58:20;16.15;;;14.20;;
62673;SDS011;62269;47.594;17.638;2024-03-08T03:59:19;16.23;;;14.52;;
62673;SDS011;62269;47.594;17.638;2024-03-08T04:00:16;15.55;;;13.35;;
62673;SDS011;62269;47.594;17.638;2024-03-08T04:01:13;15.63;;;13.68;;
62673;SDS011;62269;47.594;17.638;2024-03-08T04:02:10;18.20;;;14.02;;
62673;SDS011;62269;47.594;17.638;2024-03-08T04:03:07;16.83;;;14.52;;
62673;SDS011;62269;47.594;17.638;2024-03-08T04:04:05;16.75;;;14.98;;
62673;SDS011;62269;47.594;17.638;2024-03-08T04:05:03;14.98;;;13.38;;
62673;SDS011;62269;47.594;17.638;2024-03-08T04:06:01;17.12;;;14.70;;
62673;SDS011;62269;47.594;17.638;2024-03-08T04:07:00;18.48;;;15.35;;
62673;SDS011;62269;47.594;17.638;2024-03-08T04:07:58;17.33;;;14.30;;
62673;SDS011;62269;47.594;17.638;2024-03-08T04:08:55;15.85;;;13.68;;
62673;SDS011;62269;47.594;17.638;2024-03-08T04:09:53;16.92;;;14.85;;
62673;SDS011;62269;47.594;17.638;2024-03-08T04:10:50;16.15;;;14.02;;
62673;SDS011;62269;47.594;17.638;2024-03-08T04:11:48;16.08;;;14.18;;
62673;SDS011;62269;47.594;17.638;2024-03-08T04:12:46;16.48;;;13.93;;
62673;SDS011;62269;47.594;17.638;2024-03-08T04:13:43;16.10;;;14.02;;
62673;SDS011;62269;47.594;17.638;2024-03-08T04:14:41;16.80;;;14.05;;
62673;SDS011;62269;47.594;17.638;2024-03-08T04:15:38;15.07;;;13.50;;
62673;SDS011;62269;47.594;17.638;2024-03-08T04:16:35;15.40;;;13.65;;
62673;SDS011;62269;47.594;17.638;2024-03-08T04:17:35;15.48;;;13.68;;
62673;SDS011;62269;47.594;17.638;2024-03-08T04:18:34;15.85;;;13.43;;
62673;SDS011;62269;47.594;17.638;2024-03-08T04:19:38;18.67;;;14.52;;
62673;SDS011;62269;47.594;17.638;2024-03-08T04:20:36;16.50;;;13.43;;
62673;SDS011;62269;47.594;17.638;2024-03-08T04:21:33;16.77;;;14.50;;
62673;SDS011;62269;47.594;17.638;2024-03-08T04:22:30;15.57;;;13.90;;
62673;SDS011;62269;47.594;17.638;2024-03-08T04:23:27;18.73;;;14.35;;
62673;SDS011;62269;47.594;17.638;2024-03-08T04:24:25;15.93;;;13.35;;
62673;SDS011;62269;47.594;17.638;2024-03-08T04:25:22;16.60;;;14.18;;
62673;SDS011;62269;47.594;17.638;2024-03-08T04:26:19;16.35;;;14.38;;
62673;SDS011;62269;47.594;17.638;2024-03-08T04:27:16;16.17;;;13.73;;
62673;SDS011;62269;47.594;17.638;2024-03-08T04:28:13;16.30;;;14.23;;
62673;SDS011;62269;47.594;17.638;2024-03-08T04:29:10;16.70;;;14.85;;
62673;SDS011;62269;47.594;17.638;2024-03-08T04:30:07;16.40;;;13.80;;
62673;SDS011;62269;47.594;17.638;2024-03-08T04:31:05;15.98;;;13.10;;
62673;SDS011;62269;47.594;17.638;2024-03-08T04:32:03;16.05;;;12.90;;
62673;SDS011;62269;47.594;17.638;2024-03-08T04:33:01;16.58;;;13.80;;
62673;SDS011;62269;47.594;17.638;2024-03-08T04:34:00;16.48;;;13.85;;
62673;SDS011;62269;47.594;17.638;2024-03-08T04:34:57;16.42;;;14.02;;
62673;SDS011;62269;47.594;17.638;2024-03-08T04:35:55;15.75;;;14.00;;
62673;SDS011;62269;47.594;17.638;2024-03-08T04:36:52;17.12;;;14.07;;
62673;SDS011;62269;47.594;17.638;2024-03-08T04:37:49;16.90;;;14.25;;
62673;SDS011;62269;47.594;17.638;2024-03-08T04:38:46;17.15;;;14.90;;
62673;SDS011;62269;47.594;17.638;2024-03-08T04:39:43;17.90;;;14.30;;
62673;SDS011;62269;47.594;17.638;2024-03-08T04:40:40;15.10;;;13.45;;
62673;SDS011;62269;47.594;17.638;2024-03-08T04:41:37;16.55;;;14.23;;
62673;SDS011;62269;47.594;17.638;2024-03-08T04:42:34;16.92;;;14.50;;
62673;SDS011;62269;47.594;17.638;2024-03-08T04:43:32;16.37;;;14.48;;
62673;SDS011;62269;47.594;17.638;2024-03-08T04:44:30;18.33;;;14.18;;
62673;SDS011;62269;47.594;17.638;2024-03-08T04:45:28;16.48;;;14.77;;
62673;SDS011;62269;47.594;17.638;2024-03-08T04:46:25;15.98;;;13.60;;
62673;SDS011;62269;47.594;17.638;2024-03-08T04:47:22;15.10;;;13.35;;
62673;SDS011;62269;47.594;17.638;2024-03-08T04:48:19;16.00;;;13.55;;
62673;SDS011;62269;47.594;17.638;2024-03-08T04:49:17;17.73;;;14.73;;
62673;SDS011;62269;47.594;17.638;2024-03-08T04:50:14;15.52;;;13.50;;
62673;SDS011;62269;47.594;17.638;2024-03-08T04:51:11;15.40;;;13.80;;
62673;SDS011;62269;47.594;17.638;2024-03-08T04:52:08;15.35;;;13.70;;
62673;SDS011;62269;47.594;17.638;2024-03-08T04:53:05;17.98;;;14.60;;
62673;SDS011;62269;47.594;17.638;2024-03-08T04:54:04;15.70;;;12.75;;
62673;SDS011;62269;47.594;17.638;2024-03-08T04:55:02;16.02;;;13.98;;
62673;SDS011;62269;47.594;17.638;2024-03-08T04:56:02;12.52;;;10.90;;
62673;SDS011;62269;47.594;17.638;2024-03-08T04:57:02;16.73;;;13.52;;
62673;SDS011;62269;47.594;17.638;2024-03-08T04:58:04;18.08;;;13.90;;
62673;SDS011;62269;47.594;17.638;2024-03-08T04:59:04;17.25;;;14.55;;
62673;SDS011;62269;47.594;17.638;2024-03-08T05:00:04;15.35;;;13.70;;
62673;SDS011;62269;47.594;17.638;2024-03-08T05:01:08;17.90;;;13.82;;
62673;SDS011;62269;47.594;17.638;2024-03-08T05:02:07;16.30;;;13.05;;
62673;SDS011;62269;47.594;17.638;2024-03-08T05:03:04;15.25;;;12.93;;
62673;SDS011;62269;47.594;17.638;2024-03-08T05:04:01;16.20;;;14.13;;
62673;SDS011;62269;47.594;17.638;2024-03-08T05:05:02;15.77;;;13.38;;
62673;SDS011;62269;47.594;17.638;2024-03-08T05:06:02;15.15;;;13.05;;
62673;SDS011;62269;47.594;17.638;2024-03-08T05:06:59;16.33;;;14.15;;
62673;SDS011;62269;47.594;17.638;2024-03-08T05:07:57;16.90;;;13.57;;
62673;SDS011;62269;47.594;17.638;2024-03-08T05:08:54;15.50;;;13.15;;
62673;SDS011;62269;47.594;17.638;2024-03-08T05:09:51;15.55;;;13.40;;
62673;SDS011;62269;47.594;17.638;2024-03-08T05:10:49;15.65;;;13.73;;
62673;SDS011;62269;47.594;17.638;2024-03-08T05:11:46;14.98;;;13.35;;
62673;SDS011;62269;47.594;17.638;2024-03-08T05:12:44;16.95;;;14.87;;
62673;SDS011;62269;47.594;17.638;2024-03-08T05:13:41;16.00;;;13.70;;
62673;SDS011;62269;47.594;17.638;2024-03-08T05:14:38;15.82;;;13.70;;
62673;SDS011;62269;47.594;17.638;2024-03-08T05:15:36;15.82;;;13.55;;
62673;SDS011;62269;47.594;17.638;2024-03-08T05:16:33;17.40;;;14.18;;
62673;SDS011;62269;47.594;17.638;2024-03-08T05:17:30;15.35;;;13.05;;
62673;SDS011;62269;47.594;17.638;2024-03-08T05:18:27;16.70;;;14.02;;
62673;SDS011;62269;47.594;17.638;2024-03-08T05:19:29;16.60;;;14.07;;
62673;SDS011;62269;47.594;17.638;2024-03-08T05:20:30;17.05;;;14.02;;
62673;SDS011;62269;47.594;17.638;2024-03-08T05:21:27;16.05;;;14.25;;
62673;SDS011;62269;47.594;17.638;2024-03-08T05:22:25;16.52;;;14.75;;
62673;SDS011;62269;47.594;17.638;2024-03-08T05:23:22;16.92;;;14.45;;
62673;SDS011;62269;47.594;17.638;2024-03-08T05:24:19;16.00;;;13.75;;
62673;SDS011;62269;47.594;17.638;2024-03-08T05:25:16;17.02;;;14.95;;
62673;SDS011;62269;47.594;17.638;2024-03-08T05:26:14;15.70;;;13.65;;
62673;SDS011;62269;47.594;17.638;2024-03-08T05:27:11;18.30;;;14.73;;
62673;SDS011;62269;47.594;17.638;2024-03-08T05:28:09;15.52;;;13.40;;
62673;SDS011;62269;47.594;17.638;2024-03-08T05:29:06;16.25;;;13.70;;
62673;SDS011;62269;47.594;17.638;2024-03-08T05:30:05;15.48;;;13.52;;
62673;SDS011;62269;47.594;17.638;2024-03-08T05:31:03;15.90;;;13.98;;
62673;SDS011;62269;47.594;17.638;2024-03-08T05:32:00;16.87;;;13.80;;
62673;SDS011;62269;47.594;17.638;2024-03-08T05:32:57;16.80;;;13.70;;
62673;SDS011;62269;47.594;17.638;2024-03-08T05:33:54;16.00;;;14.20;;
62673;SDS011;62269;47.594;17.638;2024-03-08T05:34:52;16.30;;;13.25;;
62673;SDS011;62269;47.594;17.638;2024-03-08T05:35:49;15.45;;;13.80;;
62673;SDS011;62269;47.594;17.638;2024-03-08T05:36:46;16.50;;;13.13;;